Time;durP1;ratioP1;P1;durP2;ratioP2;P2;SDS_P1;SDS_P2;PMS_P1;PMS_P2;Temp;Humidity;BMP_temperature;BMP_pressure;BME280_temperature;BME280_humidity;BME280_pressure;Samples;Min_cycle;Max_cycle;Signal;HPM_P1;HPM_P2
2023/07/12 00:01:19;;;;;;;0.50;0.20;;;;;;;23.37;100.00;99611.75;5041063;28;20494;-51
2023/07/12 00:03:46;;;;;;;0.50;0.20;;;;;;;23.32;100.00;99599.47;5033564;28;20495;-51
2023/07/12 00:06:22;;;;;;;0.50;0.20;;;;;;;23.31;100.00;99602.34;5042966;28;20498;-51
2023/07/12 00:08:49;;;;;;;0.50;0.30;;;;;;;23.31;100.00;99602.34;5025936;28;20623;-51
2023/07/12 00:11:23;;;;;;;0.50;0.20;;;;;;;23.25;100.00;99606.44;5038089;28;20467;-51
2023/07/12 00:13:54;;;;;;;0.50;0.30;;;;;;;23.12;100.00;99610.44;5036836;28;20468;-51
2023/07/12 00:16:23;;;;;;;0.50;0.20;;;;;;;23.23;100.00;99613.88;5037066;28;20479;-51
2023/07/12 00:18:51;;;;;;;0.50;0.20;;;;;;;23.17;100.00;99605.47;5038618;28;21026;-51
2023/07/12 00:21:24;;;;;;;0.50;0.20;;;;;;;23.18;100.00;99613.44;5039626;28;20503;-51
2023/07/12 00:23:57;;;;;;;0.50;0.20;;;;;;;23.05;100.00;99615.56;5038140;28;20582;-51
2023/07/12 00:26:35;;;;;;;0.50;0.20;;;;;;;22.90;100.00;99612.41;5035488;28;20487;-51
2023/07/12 00:29:05;;;;;;;0.50;0.30;;;;;;;22.75;100.00;99620.03;5031774;28;20510;-51
2023/07/12 00:31:33;;;;;;;0.50;0.30;;;;;;;22.94;100.00;99610.25;5036289;28;20467;-51
2023/07/12 00:33:59;;;;;;;0.50;0.20;;;;;;;22.81;100.00;99604.19;5042664;28;20499;-51
2023/07/12 00:36:29;;;;;;;0.50;0.20;;;;;;;22.62;100.00;99608.56;5038062;28;20578;-51
2023/07/12 00:38:58;;;;;;;0.50;0.20;;;;;;;22.75;100.00;99602.88;5036341;28;20502;-51
2023/07/12 00:42:03;;;;;;;0.50;0.20;;;;;;;22.73;100.00;99613.88;5041678;28;20496;-51
2023/07/12 00:44:36;;;;;;;0.50;0.20;;;;;;;22.55;100.00;99603.84;5038127;28;20497;-51
2023/07/12 00:47:03;;;;;;;0.50;0.20;;;;;;;22.44;100.00;99612.91;5035955;28;20487;-51
2023/07/12 00:49:30;;;;;;;0.50;0.20;;;;;;;22.58;100.00;99634.19;5018744;28;20498;-51
2023/07/12 00:52:18;;;;;;;0.50;0.20;;;;;;;22.76;100.00;99619.03;5036922;28;20550;-51
2023/07/12 00:54:52;;;;;;;0.50;0.20;;;;;;;22.69;100.00;99625.97;5039696;28;20502;-50
2023/07/12 00:57:27;;;;;;;0.50;0.20;;;;;;;22.86;100.00;99623.63;5031899;28;20482;-49
2023/07/12 01:00:05;;;;;;;0.50;0.20;;;;;;;22.95;100.00;99630.94;5035638;28;20479;-50
2023/07/12 01:02:31;;;;;;;0.50;0.20;;;;;;;22.97;100.00;99642.50;5038959;28;20553;-50
2023/07/12 01:05:00;;;;;;;0.50;0.20;;;;;;;23.00;100.00;99644.94;5037131;28;20467;-52
2023/07/12 01:07:29;;;;;;;0.50;0.20;;;;;;;23.03;100.00;99642.81;5042623;28;20922;-52
2023/07/12 01:09:56;;;;;;;0.50;0.20;;;;;;;22.89;100.00;99635.09;5038011;28;20471;-52
2023/07/12 01:12:23;;;;;;;0.50;0.30;;;;;;;22.83;100.00;99618.50;5036404;28;20498;-52
2023/07/12 01:14:49;;;;;;;0.50;0.30;;;;;;;22.92;100.00;99614.97;5040083;28;20532;-52
2023/07/12 01:17:16;;;;;;;0.50;0.20;;;;;;;22.95;100.00;99614.69;5034272;28;20479;-49
2023/07/12 01:19:42;;;;;;;0.50;0.30;;;;;;;22.93;100.00;99613.97;5031617;28;20471;-50
2023/07/12 01:22:09;;;;;;;0.50;0.20;;;;;;;22.93;100.00;99600.41;5038368;28;20467;-50
2023/07/12 01:24:36;;;;;;;0.50;0.20;;;;;;;22.76;100.00;99596.50;5034093;28;20498;-49
2023/07/12 01:27:14;;;;;;;0.50;0.20;;;;;;;22.81;100.00;99604.19;5039440;28;20501;-49
2023/07/12 01:29:40;;;;;;;0.50;0.20;;;;;;;22.73;100.00;99586.75;5035753;28;20463;-49
2023/07/12 01:32:07;;;;;;;0.50;0.30;;;;;;;22.69;100.00;99588.03;5036121;28;21050;-49
2023/07/12 01:34:34;;;;;;;0.50;0.20;;;;;;;22.44;100.00;99566.84;5031170;28;20538;-49
2023/07/12 01:37:04;;;;;;;0.50;0.20;;;;;;;22.69;100.00;99579.91;5037773;28;20491;-53
2023/07/12 01:39:34;;;;;;;0.50;0.20;;;;;;;22.61;100.00;99579.75;5038393;28;20537;-49
2023/07/12 01:42:01;;;;;;;0.50;0.20;;;;;;;22.52;100.00;99572.47;5028084;28;20511;-51
2023/07/12 01:44:28;;;;;;;0.50;0.20;;;;;;;22.55;100.00;99572.19;5041178;28;20491;-49
2023/07/12 01:46:55;;;;;;;0.50;0.20;;;;;;;22.58;100.00;99566.47;5038751;28;20830;-52
2023/07/12 01:49:22;;;;;;;0.50;0.20;;;;;;;22.60;100.00;99564.47;5041565;28;20467;-49
2023/07/12 01:51:48;;;;;;;0.50;0.20;;;;;;;22.40;100.00;99563.56;5039332;28;20523;-50
2023/07/12 01:54:15;;;;;;;0.50;0.20;;;;;;;22.29;100.00;99560.97;5043340;28;20527;-50
2023/07/12 01:56:41;;;;;;;0.50;0.20;;;;;;;22.01;100.00;99565.22;5036522;28;20566;-50
2023/07/12 01:59:08;;;;;;;0.50;0.30;;;;;;;22.07;100.00;99570.13;5035622;28;20554;-49
2023/07/12 02:01:34;;;;;;;0.50;0.40;;;;;;;22.17;100.00;99567.44;5044102;28;20549;-53
2023/07/12 02:04:01;;;;;;;0.50;0.30;;;;;;;22.06;100.00;99562.13;5037252;28;20503;-53
2023/07/12 02:06:27;;;;;;;0.50;0.20;;;;;;;22.20;100.00;99556.34;5045766;28;20482;-52
2023/07/12 02:08:54;;;;;;;0.50;0.20;;;;;;;22.25;100.00;99554.09;5036011;28;20475;-53
2023/07/12 02:11:20;;;;;;;0.50;0.20;;;;;;;22.35;100.00;99555.00;5040275;28;20475;-49
2023/07/12 02:13:46;;;;;;;0.50;0.20;;;;;;;22.25;100.00;99553.25;5039648;28;20467;-50
2023/07/12 02:16:13;;;;;;;0.50;0.20;;;;;;;22.34;100.00;99547.88;5040143;28;20491;-51
2023/07/12 02:18:39;;;;;;;0.50;0.20;;;;;;;22.39;100.00;99537.47;5040797;28;20467;-53
2023/07/12 02:21:06;;;;;;;0.50;0.30;;;;;;;22.41;100.00;99542.75;5043965;28;20475;-53
2023/07/12 02:23:33;;;;;;;0.50;0.20;;;;;;;22.37;100.00;99536.78;5041253;28;20496;-52
2023/07/12 02:26:00;;;;;;;0.50;0.30;;;;;;;22.33;100.00;99535.31;5038573;28;20487;-53
2023/07/12 02:28:28;;;;;;;6.33;5.90;;;;;;;22.45;100.00;99536.06;5041242;28;20964;-49
2023/07/12 02:30:54;;;;;;;0.50;0.20;;;;;;;22.36;100.00;99532.34;5031001;28;21015;-51
2023/07/12 02:33:21;;;;;;;0.50;0.20;;;;;;;22.29;100.00;99536.59;5043581;28;20486;-52
2023/07/12 02:35:49;;;;;;;0.50;0.20;;;;;;;22.23;100.00;99534.44;5040974;28;20474;-52
2023/07/12 02:38:16;;;;;;;0.50;0.20;;;;;;;22.29;100.00;99535.72;5037339;28;20499;-51
2023/07/12 02:40:42;;;;;;;0.50;0.20;;;;;;;22.24;100.00;99535.28;5043062;28;20469;-52
2023/07/12 02:43:09;;;;;;;0.50;0.20;;;;;;;22.14;100.00;99546.94;5036441;28;20522;-53
2023/07/12 02:45:35;;;;;;;0.50;0.20;;;;;;;21.99;100.00;99548.25;5036432;28;20525;-53
2023/07/12 02:48:03;;;;;;;0.50;0.30;;;;;;;22.17;100.00;99548.50;5039981;28;20616;-53
2023/07/12 02:50:29;;;;;;;0.50;0.20;;;;;;;22.06;100.00;99535.91;5036082;28;20525;-52
2023/07/12 02:52:56;;;;;;;0.50;0.20;;;;;;;22.02;100.00;99533.59;5041647;28;20497;-52
2023/07/12 02:55:22;;;;;;;0.50;0.20;;;;;;;21.87;100.00;99522.25;5040751;28;20467;-51
2023/07/12 02:57:49;;;;;;;0.50;0.20;;;;;;;21.96;100.00;99524.16;5039651;28;20924;-52
2023/07/12 03:00:18;;;;;;;0.50;0.20;;;;;;;22.28;100.00;99518.63;5037507;28;20499;-53
2023/07/12 03:02:44;;;;;;;0.50;0.20;;;;;;;22.25;100.00;99513.50;5039765;28;20463;-51
2023/07/12 03:05:11;;;;;;;0.50;0.20;;;;;;;22.25;100.00;99507.22;5038184;28;20502;-53
2023/07/12 03:07:38;;;;;;;0.50;0.30;;;;;;;22.06;100.00;99511.53;5041158;28;20506;-53
2023/07/12 03:10:05;;;;;;;0.50;0.23;;;;;;;22.06;100.00;99514.25;5038793;28;20471;-53
2023/07/12 03:12:31;;;;;;;0.50;0.20;;;;;;;21.97;100.00;99508.78;5033390;28;20463;-52
2023/07/12 03:14:58;;;;;;;0.63;0.63;;;;;;;22.05;100.00;99517.94;5039757;28;20984;-53
2023/07/12 03:17:24;;;;;;;0.50;0.20;;;;;;;21.92;100.00;99525.41;5036582;28;20574;-53
2023/07/12 03:19:51;;;;;;;0.50;0.20;;;;;;;21.94;100.00;99528.00;5041002;28;20475;-53
2023/07/12 03:22:17;;;;;;;0.50;0.20;;;;;;;21.96;100.00;99526.88;5038778;28;20536;-53
2023/07/12 03:24:44;;;;;;;0.50;0.20;;;;;;;22.03;100.00;99521.75;5034530;28;20523;-52
2023/07/12 03:27:10;;;;;;;0.50;0.20;;;;;;;21.92;100.00;99520.00;5037386;28;20945;-52
2023/07/12 03:29:37;;;;;;;0.50;0.20;;;;;;;21.96;100.00;99534.13;5035508;28;20895;-51
2023/07/12 03:32:05;;;;;;;0.50;0.20;;;;;;;21.91;100.00;99537.22;5041053;28;20467;-52
2023/07/12 03:34:31;;;;;;;0.50;0.20;;;;;;;21.95;100.00;99543.25;5039086;28;20546;-52
2023/07/12 03:36:58;;;;;;;0.50;0.20;;;;;;;21.97;100.00;99544.81;5039868;28;20566;-52
2023/07/12 03:39:25;;;;;;;0.50;0.20;;;;;;;21.95;100.00;99548.66;5036924;28;20467;-51
2023/07/12 03:41:52;;;;;;;0.50;0.20;;;;;;;21.83;100.00;99551.44;5039943;28;20474;-51
2023/07/12 03:44:18;;;;;;;0.50;0.20;;;;;;;21.66;100.00;99551.19;5038086;28;20499;-52
2023/07/12 03:46:45;;;;;;;0.50;0.20;;;;;;;21.58;100.00;99551.84;5036097;28;20478;-52
2023/07/12 03:49:11;;;;;;;0.50;0.20;;;;;;;21.50;100.00;99559.75;5039605;28;20884;-52
2023/07/12 03:51:38;;;;;;;0.50;0.20;;;;;;;21.40;100.00;99562.41;5036592;28;20573;-52
2023/07/12 03:54:04;;;;;;;0.50;0.20;;;;;;;21.47;100.00;99568.13;5040492;28;20470;-52
2023/07/12 03:56:31;;;;;;;0.50;0.30;;;;;;;21.38;100.00;99572.50;5040718;28;20999;-53
2023/07/12 03:58:57;;;;;;;0.50;0.20;;;;;;;21.32;100.00;99575.69;5032491;28;20624;-53
2023/07/12 04:01:24;;;;;;;0.50;0.20;;;;;;;21.47;100.00;99578.94;5042390;28;20501;-53
2023/07/12 04:03:50;;;;;;;0.50;0.20;;;;;;;21.59;100.00;99584.16;5034646;28;20904;-52
2023/07/12 04:06:17;;;;;;;0.53;0.43;;;;;;;21.63;100.00;99589.31;5044725;28;20569;-53
2023/07/12 04:08:43;;;;;;;0.50;0.20;;;;;;;21.59;100.00;99588.72;5033794;28;20904;-52
2023/07/12 04:11:27;;;;;;;0.50;0.20;;;;;;;21.76;100.00;99609.78;5038200;28;20850;-53
2023/07/12 04:13:54;;;;;;;0.50;0.20;;;;;;;21.82;100.00;99628.22;5039060;28;20513;-52
2023/07/12 04:16:24;;;;;;;0.50;0.20;;;;;;;21.91;100.00;99637.38;5039298;28;20545;-52
2023/07/12 04:18:52;;;;;;;0.50;0.20;;;;;;;21.89;100.00;99648.31;5037925;28;20463;-52
2023/07/12 04:21:19;;;;;;;0.50;0.20;;;;;;;21.75;100.00;99637.81;5036018;28;20467;-52
2023/07/12 04:23:47;;;;;;;0.50;0.20;;;;;;;21.88;100.00;99645.75;5038850;28;20942;-52
2023/07/12 04:26:15;;;;;;;0.50;0.20;;;;;;;21.92;100.00;99646.34;5037155;28;20533;-52
2023/07/12 04:28:48;;;;;;;0.50;0.20;;;;;;;21.77;100.00;99643.09;5040397;28;20817;-52
2023/07/12 04:31:17;;;;;;;0.50;0.20;;;;;;;21.91;100.00;99647.34;5037984;28;20456;-53
2023/07/12 04:33:45;;;;;;;1.33;1.23;;;;;;;21.81;100.00;99650.00;5035078;28;20483;-52
2023/07/12 04:36:13;;;;;;;0.50;0.30;;;;;;;21.81;100.00;99660.81;5018334;28;20865;-52
2023/07/12 04:38:40;;;;;;;0.50;0.30;;;;;;;21.85;100.00;99659.56;5036549;28;20466;-53
2023/07/12 04:41:07;;;;;;;0.50;0.30;;;;;;;21.85;100.00;99665.81;5039810;28;20542;-53
2023/07/12 04:43:34;;;;;;;0.50;0.20;;;;;;;21.95;100.00;99671.31;5037077;28;20467;-52
2023/07/12 04:46:01;;;;;;;0.50;0.20;;;;;;;22.03;100.00;99670.63;5032429;28;20583;-53
2023/07/12 04:48:30;;;;;;;0.50;0.30;;;;;;;22.08;100.00;99679.28;5041753;28;20497;-52
2023/07/12 04:50:56;;;;;;;0.50;0.20;;;;;;;22.14;100.00;99687.72;5033170;28;20479;-51
2023/07/12 04:53:23;;;;;;;0.50;0.30;;;;;;;22.51;100.00;99699.91;5042929;28;20525;-52
2023/07/12 04:55:55;;;;;;;0.50;0.20;;;;;;;22.61;100.00;99703.50;5035014;28;20492;-52
2023/07/12 04:58:21;;;;;;;0.50;0.20;;;;;;;23.13;100.00;99715.19;5037016;28;20463;-53
2023/07/12 05:00:50;;;;;;;0.50;0.20;;;;;;;23.31;100.00;99717.09;5036301;28;20467;-53
2023/07/12 05:03:17;;;;;;;0.53;0.43;;;;;;;23.21;100.00;99710.78;5036679;28;20550;-52
2023/07/12 05:05:44;;;;;;;0.50;0.20;;;;;;;22.99;100.00;99709.16;5036874;28;20522;-53
2023/07/12 05:08:11;;;;;;;0.50;0.20;;;;;;;23.04;100.00;99714.19;5037624;28;20489;-53
2023/07/12 05:10:38;;;;;;;0.50;0.20;;;;;;;23.00;100.00;99724.41;5037208;28;20471;-53
2023/07/12 05:13:04;;;;;;;0.50;0.20;;;;;;;23.19;100.00;99734.50;5035291;28;21034;-53
2023/07/12 05:15:31;;;;;;;0.50;0.20;;;;;;;23.32;100.00;99743.25;5043764;28;20557;-52
2023/07/12 05:17:57;;;;;;;0.50;0.20;;;;;;;23.74;100.00;99753.06;5040266;28;21031;-53
2023/07/12 05:20:24;;;;;;;0.50;0.30;;;;;;;23.69;100.00;99756.19;5043760;28;20467;-51
2023/07/12 05:22:51;;;;;;;0.50;0.20;;;;;;;23.78;100.00;99760.78;5041578;28;20467;-53
2023/07/12 05:25:17;;;;;;;0.50;0.30;;;;;;;23.63;100.00;99754.91;5037664;28;20501;-53
2023/07/12 05:27:44;;;;;;;0.50;0.20;;;;;;;23.47;100.00;99756.41;5043657;28;20548;-53
2023/07/12 05:30:11;;;;;;;0.50;0.20;;;;;;;23.75;100.00;99752.91;5040111;28;20813;-53
2023/07/12 05:32:38;;;;;;;0.50;0.20;;;;;;;23.56;100.00;99753.69;5044740;28;20968;-53
2023/07/12 05:35:05;;;;;;;0.50;0.30;;;;;;;23.61;100.00;99754.19;5041435;28;20465;-52
2023/07/12 05:37:32;;;;;;;0.50;0.20;;;;;;;24.51;100.00;99748.47;5038760;28;20491;-52
2023/07/12 05:40:00;;;;;;;0.50;0.20;;;;;;;24.52;99.19;99747.47;5042660;28;20561;-53
2023/07/12 05:42:27;;;;;;;0.50;0.20;;;;;;;24.92;98.26;99757.22;5040844;28;20471;-53
2023/07/12 05:44:53;;;;;;;0.50;0.30;;;;;;;24.98;97.67;99751.22;5042840;28;20559;-53
2023/07/12 05:47:20;;;;;;;0.50;0.30;;;;;;;24.80;97.28;99750.25;5042013;28;20483;-53
2023/07/12 05:49:46;;;;;;;0.50;0.30;;;;;;;24.40;98.55;99747.81;5042062;28;20545;-53
2023/07/12 05:52:13;;;;;;;0.50;0.30;;;;;;;24.72;97.57;99740.13;5038907;28;20471;-53
2023/07/12 05:54:39;;;;;;;0.50;0.30;;;;;;;24.63;97.57;99740.16;5043175;28;20494;-53
2023/07/12 05:57:06;;;;;;;0.50;0.20;;;;;;;24.52;98.95;99750.19;5039502;28;20489;-53
2023/07/12 05:59:33;;;;;;;0.50;0.30;;;;;;;24.72;97.40;99766.47;5045132;28;20822;-53
2023/07/12 06:01:59;;;;;;;0.50;0.30;;;;;;;24.44;98.50;99760.09;5040344;28;20886;-53
2023/07/12 06:04:25;;;;;;;0.50;0.30;;;;;;;23.93;100.00;99759.34;5038568;28;20494;-53
2023/07/12 06:06:52;;;;;;;0.50;0.30;;;;;;;23.73;100.00;99754.91;5041734;28;20486;-52
2023/07/12 06:09:19;;;;;;;0.50;0.20;;;;;;;23.74;100.00;99766.63;5038564;28;20888;-52
2023/07/12 06:11:46;;;;;;;0.50;0.23;;;;;;;24.08;100.00;99759.78;5043904;28;20467;-53
2023/07/12 06:14:12;;;;;;;0.50;0.30;;;;;;;23.97;100.00;99761.78;5038430;28;20943;-53
2023/07/12 06:16:39;;;;;;;0.50;0.30;;;;;;;24.00;99.81;99770.53;5036751;28;20493;-53
2023/07/12 06:19:05;;;;;;;0.50;0.30;;;;;;;24.19;98.53;99761.50;5042744;28;20494;-53
2023/07/12 06:21:32;;;;;;;1.10;0.97;;;;;;;23.96;99.86;99770.94;5039887;28;20474;-52
2023/07/12 06:23:59;;;;;;;0.50;0.20;;;;;;;24.18;99.55;99770.66;5039608;28;20506;-52
2023/07/12 06:26:26;;;;;;;0.50;0.20;;;;;;;24.01;99.91;99764.09;5037684;28;20491;-53
2023/07/12 06:28:53;;;;;;;0.50;0.27;;;;;;;24.13;99.42;99772.97;5040742;28;21026;-52
2023/07/12 06:31:20;;;;;;;0.50;0.30;;;;;;;23.93;96.61;99777.50;5039237;28;20464;-53
2023/07/12 06:33:47;;;;;;;0.50;0.30;;;;;;;23.71;93.75;99778.63;5044166;28;20463;-53
2023/07/12 06:36:13;;;;;;;0.50;0.30;;;;;;;23.81;92.60;99776.78;5040427;28;20882;-52
2023/07/12 06:38:40;;;;;;;0.50;0.30;;;;;;;23.71;89.90;99773.22;5038353;28;20498;-53
2023/07/12 06:41:06;;;;;;;0.50;0.20;;;;;;;23.85;90.24;99775.50;5041472;28;20467;-52
2023/07/12 06:43:33;;;;;;;0.50;0.20;;;;;;;24.12;88.86;99782.06;5039136;28;20448;-53
2023/07/12 06:45:59;;;;;;;0.50;0.30;;;;;;;24.43;85.81;99780.13;5034220;28;20499;-52
2023/07/12 06:48:26;;;;;;;0.50;0.30;;;;;;;24.40;84.05;99780.41;5039722;28;20557;-53
2023/07/12 06:50:54;;;;;;;0.50;0.27;;;;;;;24.29;84.59;99780.53;5035073;28;20468;-52
2023/07/12 06:53:21;;;;;;;0.50;0.30;;;;;;;24.44;84.64;99785.41;5044158;28;20513;-52
2023/07/12 06:55:48;;;;;;;0.50;0.27;;;;;;;24.80;82.97;99782.88;5034471;28;20881;-52
2023/07/12 06:58:14;;;;;;;0.50;0.30;;;;;;;25.12;82.69;99781.69;5045135;28;20562;-53
2023/07/12 07:00:42;;;;;;;0.50;0.30;;;;;;;25.32;81.10;99788.75;5038505;28;20463;-53
2023/07/12 07:03:10;;;;;;;0.50;0.30;;;;;;;25.40;79.79;99791.59;5039748;28;20506;-53
2023/07/12 07:05:39;;;;;;;0.50;0.20;;;;;;;25.77;79.03;99787.94;5037850;28;20546;-52
2023/07/12 07:08:07;;;;;;;0.50;0.30;;;;;;;25.66;77.40;99791.72;5042350;28;20474;-53
2023/07/12 07:10:33;;;;;;;0.50;0.30;;;;;;;26.18;76.35;99792.81;5038830;28;20490;-53
2023/07/12 07:13:00;;;;;;;0.50;0.20;;;;;;;26.05;75.05;99789.63;5044119;28;20463;-52
2023/07/12 07:15:27;;;;;;;0.50;0.30;;;;;;;26.77;74.40;99798.63;5020531;28;20983;-51
2023/07/12 07:17:53;;;;;;;0.50;0.30;;;;;;;26.63;73.37;99793.75;5037595;28;20854;-52
2023/07/12 07:20:22;;;;;;;0.50;0.20;;;;;;;25.69;75.99;99795.03;5041768;28;20438;-52
2023/07/12 07:22:48;;;;;;;0.50;0.30;;;;;;;25.87;76.79;99795.03;5039298;28;20978;-51
2023/07/12 07:25:15;;;;;;;0.50;0.30;;;;;;;26.13;76.42;99800.59;5034309;28;20466;-53
2023/07/12 07:27:47;;;;;;;0.50;0.27;;;;;;;25.98;77.87;99793.97;5040563;28;20457;-52
2023/07/12 07:30:13;;;;;;;0.50;0.30;;;;;;;25.83;77.48;99795.53;5036763;28;20532;-53
2023/07/12 07:32:40;;;;;;;0.50;0.27;;;;;;;25.88;75.52;99798.63;5041665;28;20520;-52
2023/07/12 07:35:07;;;;;;;0.50;0.30;;;;;;;26.19;76.12;99805.44;5039017;28;20461;-52
2023/07/12 07:37:34;;;;;;;0.50;0.30;;;;;;;25.84;77.54;99799.94;5035815;28;20488;-53
2023/07/12 07:40:00;;;;;;;0.50;0.30;;;;;;;26.21;75.81;99808.84;5040876;28;21002;-53
2023/07/12 07:42:27;;;;;;;0.50;0.30;;;;;;;26.32;74.29;99809.66;5039154;28;20478;-52
2023/07/12 07:44:53;;;;;;;0.50;0.30;;;;;;;25.93;75.81;99799.03;5038726;28;20471;-53
2023/07/12 07:47:21;;;;;;;0.50;0.30;;;;;;;26.34;75.91;99804.88;5036571;28;20520;-53
2023/07/12 07:49:47;;;;;;;0.50;0.30;;;;;;;26.45;75.46;99812.84;5040827;28;20570;-52
2023/07/12 07:52:14;;;;;;;0.50;0.30;;;;;;;26.93;73.83;99804.19;5037341;28;20517;-54
2023/07/12 07:54:40;;;;;;;0.50;0.30;;;;;;;26.20;75.02;99798.13;5043476;28;20461;-53
2023/07/12 07:57:08;;;;;;;0.50;0.30;;;;;;;25.93;75.90;99799.03;5038846;28;20494;-53
2023/07/12 07:59:34;;;;;;;0.50;0.30;;;;;;;26.27;75.43;99810.09;5037022;28;20466;-53
2023/07/12 08:02:01;;;;;;;0.50;0.30;;;;;;;26.36;76.11;99805.63;5040034;28;20511;-53
2023/07/12 08:04:45;;;;;;;0.50;0.30;;;;;;;26.26;76.52;99792.88;5036390;28;20719;-53
2023/07/12 08:07:12;;;;;;;0.50;0.30;;;;;;;26.25;74.77;99802.06;5033539;28;20545;-53
2023/07/12 08:09:39;;;;;;;0.50;0.30;;;;;;;26.91;74.11;99808.09;5040691;28;20519;-53
2023/07/12 08:12:07;;;;;;;0.50;0.30;;;;;;;26.34;74.25;99796.72;5034938;28;20564;-53
2023/07/12 08:14:33;;;;;;;0.50;0.30;;;;;;;27.31;75.50;99796.59;5042637;28;20774;-53
2023/07/12 08:17:00;;;;;;;0.50;0.30;;;;;;;27.62;72.66;99797.72;5033642;28;20517;-53
2023/07/12 08:19:26;;;;;;;0.50;0.30;;;;;;;27.52;72.35;99797.00;5036421;28;20567;-53
2023/07/12 08:21:53;;;;;;;0.50;0.30;;;;;;;27.04;71.63;99789.44;5037198;28;20449;-53
2023/07/12 08:24:19;;;;;;;0.50;0.30;;;;;;;27.30;72.82;99789.41;5036987;28;20471;-53
2023/07/12 08:26:45;;;;;;;0.50;0.30;;;;;;;27.89;72.42;99799.38;5038767;28;20527;-52
2023/07/12 08:29:27;;;;;;;0.50;0.30;;;;;;;27.81;71.61;99799.34;5038503;28;20605;-53
2023/07/12 08:31:54;;;;;;;0.50;0.30;;;;;;;28.66;69.26;99805.47;5037668;28;20525;-54
2023/07/12 08:34:20;;;;;;;0.50;0.30;;;;;;;27.33;71.81;99805.47;5035219;28;20449;-53
2023/07/12 08:36:47;;;;;;;0.50;0.30;;;;;;;27.63;71.40;99806.78;5040063;28;20513;-53
2023/07/12 08:39:13;;;;;;;0.50;0.30;;;;;;;28.22;70.56;99808.47;5036592;28;20503;-54
2023/07/12 08:41:40;;;;;;;0.50;0.30;;;;;;;28.41;69.18;99815.56;5039135;28;20964;-53
2023/07/12 08:44:13;;;;;;;0.50;0.30;;;;;;;28.06;69.95;99808.47;5037183;28;20522;-52
2023/07/12 08:46:48;;;;;;;0.50;0.30;;;;;;;27.71;70.07;99794.03;5034621;28;20638;-53
2023/07/12 08:49:17;;;;;;;0.50;0.30;;;;;;;28.16;71.01;99790.03;5042149;28;20459;-54
2023/07/12 08:51:45;;;;;;;0.50;0.30;;;;;;;28.37;70.40;99794.16;5041048;28;20498;-53
2023/07/12 08:54:25;;;;;;;0.50;0.30;;;;;;;28.17;71.00;99804.56;5043138;28;20534;-53
2023/07/12 08:57:14;;;;;;;0.50;0.30;;;;;;;28.13;69.91;99793.13;5040792;28;20525;-53
2023/07/12 08:59:41;;;;;;;0.50;0.30;;;;;;;28.89;67.87;99789.22;5044320;28;20554;-53
2023/07/12 09:02:23;;;;;;;0.50;0.30;;;;;;;28.91;67.66;99795.38;5042047;28;20549;-53
2023/07/12 09:04:52;;;;;;;0.50;0.30;;;;;;;28.95;62.83;99796.75;5039916;28;20504;-54
2023/07/12 09:07:33;;;;;;;0.50;0.30;;;;;;;29.16;61.83;99796.16;5043698;28;20491;-54
2023/07/12 09:10:00;;;;;;;0.50;0.30;;;;;;;29.63;60.92;99793.47;5033736;28;20524;-53
2023/07/12 09:12:32;;;;;;;0.50;0.30;;;;;;;29.80;58.87;99796.97;5038871;28;20473;-53
2023/07/12 09:15:05;;;;;;;0.50;0.30;;;;;;;30.10;58.89;99806.22;5042109;28;20464;-54
2023/07/12 09:17:35;;;;;;;0.50;0.30;;;;;;;30.23;56.05;99805.63;5032700;28;20906;-54
2023/07/12 09:20:03;;;;;;;0.50;0.30;;;;;;;29.56;55.05;99819.00;5037919;28;20804;-53
2023/07/12 09:22:30;;;;;;;0.50;0.30;;;;;;;28.89;54.98;99805.63;5043840;28;20557;-50
2023/07/12 09:24:57;;;;;;;0.50;0.30;;;;;;;28.86;56.12;99809.53;5036214;28;20470;-53
2023/07/12 09:27:26;;;;;;;0.50;0.30;;;;;;;28.96;54.91;99808.56;5045173;28;20868;-53
2023/07/12 09:30:02;;;;;;;0.50;0.30;;;;;;;29.60;53.50;99803.91;5035476;28;20496;-53
2023/07/12 09:32:33;;;;;;;0.50;0.30;;;;;;;29.61;48.62;99817.44;5039494;28;20490;-53
2023/07/12 09:35:22;;;;;;;0.50;0.30;;;;;;;30.02;49.18;99803.53;5038716;28;20446;-54
2023/07/12 09:38:00;;;;;;;0.50;0.30;;;;;;;30.02;48.33;99801.66;5035716;28;20466;-53
2023/07/12 09:40:37;;;;;;;0.50;0.30;;;;;;;29.99;48.87;99803.88;5038792;28;20443;-54
2023/07/12 09:43:12;;;;;;;0.50;0.30;;;;;;;29.83;48.49;99803.97;5040014;28;20476;-54
2023/07/12 09:45:42;;;;;;;0.50;0.30;;;;;;;29.77;50.93;99811.88;5037720;28;20473;-54
2023/07/12 09:48:32;;;;;;;0.50;0.30;;;;;;;30.11;48.40;99813.41;5038484;28;20469;-54
2023/07/12 09:51:14;;;;;;;0.50;0.30;;;;;;;30.95;48.84;99825.28;5035237;28;20494;-54
2023/07/12 09:53:46;;;;;;;0.50;0.30;;;;;;;30.03;48.95;99821.69;5043999;28;20472;-53
2023/07/12 09:56:30;;;;;;;0.50;0.30;;;;;;;30.52;47.93;99818.63;5038205;28;20457;-52
2023/07/12 09:59:04;;;;;;;0.50;0.30;;;;;;;30.01;49.15;99819.09;5034912;28;20473;-53
2023/07/12 10:01:56;;;;;;;0.50;0.30;;;;;;;29.66;47.91;99825.97;5038376;28;20594;-52
2023/07/12 10:04:47;;;;;;;0.50;0.30;;;;;;;30.37;46.85;99826.78;5034044;28;20464;-52
2023/07/12 10:07:45;;;;;;;0.50;0.30;;;;;;;30.70;46.03;99830.13;5042610;28;20454;-54
2023/07/12 10:10:28;;;;;;;0.50;0.30;;;;;;;30.23;46.59;99825.69;4993611;28;21003;-54
2023/07/12 10:13:07;;;;;;;0.50;0.30;;;;;;;30.05;45.89;99828.72;5031076;28;20894;-52
2023/07/12 10:15:37;;;;;;;0.50;0.30;;;;;;;30.36;45.30;99836.91;5044314;28;20516;-53
2023/07/12 10:18:05;;;;;;;0.50;0.30;;;;;;;30.61;44.99;99832.09;5040416;28;20529;-52
2023/07/12 10:20:32;;;;;;;0.50;0.30;;;;;;;30.19;46.78;99838.06;5038592;28;20528;-53
2023/07/12 10:22:59;;;;;;;0.50;0.30;;;;;;;30.16;47.03;99829.34;5041256;28;20442;-52
2023/07/12 10:25:35;;;;;;;0.50;0.30;;;;;;;30.04;47.16;99828.88;5038459;28;20550;-53
2023/07/12 10:28:20;;;;;;;0.50;0.30;;;;;;;30.52;46.64;99837.81;5003901;28;20525;-52
2023/07/12 10:30:48;;;;;;;0.50;0.30;;;;;;;30.73;46.43;99827.06;5038812;28;20462;-53
2023/07/12 10:33:33;;;;;;;0.50;0.30;;;;;;;30.70;47.41;99829.28;5035165;28;20470;-53
2023/07/12 10:36:07;;;;;;;0.50;0.30;;;;;;;30.83;45.76;99827.63;5033098;28;20901;-53
2023/07/12 10:38:33;;;;;;;0.50;0.30;;;;;;;30.55;46.64;99838.28;5039539;28;20542;-51
2023/07/12 10:41:28;;;;;;;0.50;0.30;;;;;;;30.61;45.89;99826.59;5041610;28;20858;-53
2023/07/12 10:44:05;;;;;;;0.50;0.30;;;;;;;30.92;46.30;99836.66;5027210;28;20454;-53
2023/07/12 10:46:40;;;;;;;0.50;0.30;;;;;;;30.71;44.59;99834.63;5033822;28;20502;-53
2023/07/12 10:49:15;;;;;;;0.50;0.30;;;;;;;31.15;45.11;99834.69;5040411;28;20434;-52
2023/07/12 10:51:45;;;;;;;0.50;0.30;;;;;;;30.83;45.61;99835.00;5038100;28;20494;-52
2023/07/12 10:54:30;;;;;;;0.50;0.30;;;;;;;31.15;45.53;99828.34;5041184;28;20438;-53
2023/07/12 10:57:05;;;;;;;0.50;0.30;;;;;;;31.39;44.18;99828.13;5031257;28;21026;-52
2023/07/12 10:59:32;;;;;;;0.50;0.30;;;;;;;31.30;44.40;99823.75;5037603;28;20520;-52
2023/07/12 11:02:04;;;;;;;0.50;0.30;;;;;;;30.99;43.91;99823.03;5040242;28;20467;-53
2023/07/12 11:04:30;;;;;;;0.50;0.30;;;;;;;30.84;44.59;99833.97;5039565;28;20437;-52
2023/07/12 11:06:59;;;;;;;0.50;0.30;;;;;;;30.77;45.22;99820.16;5041134;28;20474;-54
2023/07/12 11:09:47;;;;;;;0.50;0.30;;;;;;;31.02;44.71;99823.50;5042120;28;20444;-53
2023/07/12 11:12:16;;;;;;;0.50;0.30;;;;;;;30.98;44.31;99827.69;5034931;28;20517;-55
2023/07/12 11:14:48;;;;;;;0.50;0.30;;;;;;;30.03;45.65;99821.69;5042050;28;20993;-52
2023/07/12 11:17:21;;;;;;;0.50;0.30;;;;;;;30.21;46.17;99832.41;5036709;28;20457;-53
2023/07/12 11:20:01;;;;;;;0.50;0.30;;;;;;;29.79;45.34;99834.47;5034414;28;20441;-52
2023/07/12 11:22:48;;;;;;;0.50;0.30;;;;;;;29.88;46.06;99839.91;5042921;28;20458;-53
2023/07/12 11:25:42;;;;;;;0.50;0.30;;;;;;;30.21;45.87;99832.41;5036047;28;20467;-52
2023/07/12 11:28:39;;;;;;;0.50;0.30;;;;;;;29.76;45.44;99829.38;5035191;28;20473;-52
2023/07/12 11:31:25;;;;;;;0.50;0.30;;;;;;;29.67;47.54;99816.72;5032501;28;20450;-52
2023/07/12 11:34:04;;;;;;;0.50;0.30;;;;;;;30.01;46.92;99818.25;5035802;28;20546;-52
2023/07/12 11:36:34;;;;;;;0.50;0.30;;;;;;;30.31;46.65;99825.66;5040320;28;20903;-52
2023/07/12 11:39:02;;;;;;;0.50;0.30;;;;;;;29.96;47.44;99820.69;5037725;28;20958;-52
2023/07/12 11:41:29;;;;;;;0.50;0.30;;;;;;;30.19;47.92;99827.09;5040464;28;20581;-52